Avon, Maine
Current Conditions -  °F | °C
As of 12:35 AM on Monday 20 Oct 2014 (Local Time) from KWVL Reporting Station
Few Clouds Few Clouds  
Wind Chill: 33°   Ceiling: Unl
Heat Index: 37°   Visibility: 10mi
Dew Point: 25°   Wind: 6mph
Humidity: 60%   Direction: 300°WNW
Pressure: 29.82"   Gusts: NA
Location:  44.8921°N, 70.379°W
Report Text: KWVL 200435Z 30005KT 10SM FEW048 03/M04 A2982 RMK AO1
Loading
Personal Weather Stations






























Interactive Weather Map New forecast layout! Learn more

10-Day Weather Forecast

Advertisements
Track Severe Weather on mobile